sensor_id;sensor_type;location;lat;lon;timestamp;P1;durP1;ratioP1;P2;durP2;ratioP2
3189;SDS011;1606;51.946;10.558;2022-10-17T00:01:04;11.07;;;2.80;;
3189;SDS011;1606;51.946;10.558;2022-10-17T00:03:34;7.90;;;2.90;;
3189;SDS011;1606;51.946;10.558;2022-10-17T00:06:04;9.37;;;2.43;;
3189;SDS011;1606;51.946;10.558;2022-10-17T00:08:33;8.47;;;2.50;;
3189;SDS011;1606;51.946;10.558;2022-10-17T00:11:02;7.67;;;2.40;;
3189;SDS011;1606;51.946;10.558;2022-10-17T00:13:31;10.27;;;2.50;;
3189;SDS011;1606;51.946;10.558;2022-10-17T00:16:00;8.03;;;3.13;;
3189;SDS011;1606;51.946;10.558;2022-10-17T00:18:28;11.93;;;3.30;;
3189;SDS011;1606;51.946;10.558;2022-10-17T00:20:57;7.13;;;2.27;;
3189;SDS011;1606;51.946;10.558;2022-10-17T00:23:25;8.60;;;2.63;;
3189;SDS011;1606;51.946;10.558;2022-10-17T00:25:58;8.60;;;2.40;;
3189;SDS011;1606;51.946;10.558;2022-10-17T00:28:26;7.80;;;2.70;;
3189;SDS011;1606;51.946;10.558;2022-10-17T00:30:55;14.43;;;4.33;;
3189;SDS011;1606;51.946;10.558;2022-10-17T00:33:23;7.23;;;2.50;;
3189;SDS011;1606;51.946;10.558;2022-10-17T00:35:53;10.83;;;3.23;;
3189;SDS011;1606;51.946;10.558;2022-10-17T00:38:30;7.67;;;2.50;;
3189;SDS011;1606;51.946;10.558;2022-10-17T00:40:58;8.60;;;2.73;;
3189;SDS011;1606;51.946;10.558;2022-10-17T00:43:26;6.57;;;2.23;;
3189;SDS011;1606;51.946;10.558;2022-10-17T00:45:54;7.60;;;2.77;;
3189;SDS011;1606;51.946;10.558;2022-10-17T00:48:22;6.80;;;2.53;;
3189;SDS011;1606;51.946;10.558;2022-10-17T00:50:51;8.20;;;3.00;;
3189;SDS011;1606;51.946;10.558;2022-10-17T00:53:21;8.03;;;2.50;;
3189;SDS011;1606;51.946;10.558;2022-10-17T00:55:50;8.83;;;2.97;;
3189;SDS011;1606;51.946;10.558;2022-10-17T00:58:19;6.97;;;2.00;;
3189;SDS011;1606;51.946;10.558;2022-10-17T01:00:47;6.93;;;2.00;;
3189;SDS011;1606;51.946;10.558;2022-10-17T01:03:15;7.10;;;1.93;;
3189;SDS011;1606;51.946;10.558;2022-10-17T01:05:43;9.13;;;2.60;;
3189;SDS011;1606;51.946;10.558;2022-10-17T01:08:13;7.30;;;2.60;;
3189;SDS011;1606;51.946;10.558;2022-10-17T01:10:44;7.17;;;2.47;;
3189;SDS011;1606;51.946;10.558;2022-10-17T01:13:20;8.53;;;3.20;;
3189;SDS011;1606;51.946;10.558;2022-10-17T01:15:56;8.13;;;2.20;;
3189;SDS011;1606;51.946;10.558;2022-10-17T01:18:32;7.67;;;2.47;;
3189;SDS011;1606;51.946;10.558;2022-10-17T01:21:23;8.07;;;2.00;;
3189;SDS011;1606;51.946;10.558;2022-10-17T01:24:06;9.70;;;2.90;;
3189;SDS011;1606;51.946;10.558;2022-10-17T01:27:08;7.03;;;2.57;;
3189;SDS011;1606;51.946;10.558;2022-10-17T01:29:56;8.40;;;2.20;;
3189;SDS011;1606;51.946;10.558;2022-10-17T01:32:47;7.50;;;2.33;;
3189;SDS011;1606;51.946;10.558;2022-10-17T01:35:21;8.57;;;2.47;;
3189;SDS011;1606;51.946;10.558;2022-10-17T01:37:55;11.63;;;2.40;;
3189;SDS011;1606;51.946;10.558;2022-10-17T01:40:30;12.90;;;2.40;;
3189;SDS011;1606;51.946;10.558;2022-10-17T01:43:03;8.40;;;2.17;;
3189;SDS011;1606;51.946;10.558;2022-10-17T01:45:36;7.50;;;2.67;;
3189;SDS011;1606;51.946;10.558;2022-10-17T01:48:11;7.60;;;2.43;;
3189;SDS011;1606;51.946;10.558;2022-10-17T01:50:44;8.23;;;2.60;;
3189;SDS011;1606;51.946;10.558;2022-10-17T01:53:15;10.70;;;2.60;;
3189;SDS011;1606;51.946;10.558;2022-10-17T01:55:48;8.40;;;2.40;;
3189;SDS011;1606;51.946;10.558;2022-10-17T01:58:20;7.00;;;2.23;;
3189;SDS011;1606;51.946;10.558;2022-10-17T02:00:53;9.03;;;2.77;;
3189;SDS011;1606;51.946;10.558;2022-10-17T02:03:24;10.97;;;2.97;;
3189;SDS011;1606;51.946;10.558;2022-10-17T02:05:54;7.00;;;2.60;;
3189;SDS011;1606;51.946;10.558;2022-10-17T02:08:26;7.80;;;2.70;;
3189;SDS011;1606;51.946;10.558;2022-10-17T02:10:55;7.50;;;2.40;;
3189;SDS011;1606;51.946;10.558;2022-10-17T02:13:29;8.53;;;2.17;;
3189;SDS011;1606;51.946;10.558;2022-10-17T02:16:07;8.43;;;2.93;;
3189;SDS011;1606;51.946;10.558;2022-10-17T02:19:00;9.53;;;2.87;;
3189;SDS011;1606;51.946;10.558;2022-10-17T02:21:38;7.70;;;2.27;;
3189;SDS011;1606;51.946;10.558;2022-10-17T02:24:14;9.07;;;2.80;;
3189;SDS011;1606;51.946;10.558;2022-10-17T02:26:51;8.60;;;2.47;;
3189;SDS011;1606;51.946;10.558;2022-10-17T02:29:21;9.17;;;2.60;;
3189;SDS011;1606;51.946;10.558;2022-10-17T02:31:53;8.73;;;2.23;;
3189;SDS011;1606;51.946;10.558;2022-10-17T02:34:26;9.30;;;2.70;;
3189;SDS011;1606;51.946;10.558;2022-10-17T02:36:58;8.30;;;2.47;;
3189;SDS011;1606;51.946;10.558;2022-10-17T02:39:28;8.47;;;2.60;;
3189;SDS011;1606;51.946;10.558;2022-10-17T02:41:58;6.90;;;2.40;;
3189;SDS011;1606;51.946;10.558;2022-10-17T02:44:29;8.90;;;2.50;;
3189;SDS011;1606;51.946;10.558;2022-10-17T02:47:00;7.67;;;2.70;;
3189;SDS011;1606;51.946;10.558;2022-10-17T02:49:35;10.50;;;2.13;;
3189;SDS011;1606;51.946;10.558;2022-10-17T02:52:07;8.00;;;2.50;;
3189;SDS011;1606;51.946;10.558;2022-10-17T02:54:39;8.63;;;2.73;;
3189;SDS011;1606;51.946;10.558;2022-10-17T02:57:13;10.00;;;2.77;;
3189;SDS011;1606;51.946;10.558;2022-10-17T02:59:44;7.43;;;2.37;;
3189;SDS011;1606;51.946;10.558;2022-10-17T03:02:13;7.23;;;2.43;;
3189;SDS011;1606;51.946;10.558;2022-10-17T03:04:43;8.50;;;2.73;;
3189;SDS011;1606;51.946;10.558;2022-10-17T03:07:12;9.00;;;4.00;;
3189;SDS011;1606;51.946;10.558;2022-10-17T03:09:40;7.90;;;2.30;;
3189;SDS011;1606;51.946;10.558;2022-10-17T03:12:08;10.90;;;2.67;;
3189;SDS011;1606;51.946;10.558;2022-10-17T03:14:36;7.47;;;2.43;;
3189;SDS011;1606;51.946;10.558;2022-10-17T03:17:03;13.83;;;3.47;;
3189;SDS011;1606;51.946;10.558;2022-10-17T03:19:31;7.77;;;2.30;;
3189;SDS011;1606;51.946;10.558;2022-10-17T03:22:00;9.37;;;2.70;;
3189;SDS011;1606;51.946;10.558;2022-10-17T03:24:28;6.80;;;2.37;;
3189;SDS011;1606;51.946;10.558;2022-10-17T03:26:56;10.30;;;2.67;;
3189;SDS011;1606;51.946;10.558;2022-10-17T03:29:24;8.87;;;2.70;;
3189;SDS011;1606;51.946;10.558;2022-10-17T03:31:52;10.83;;;2.97;;
3189;SDS011;1606;51.946;10.558;2022-10-17T03:34:19;6.90;;;2.27;;
3189;SDS011;1606;51.946;10.558;2022-10-17T03:36:47;10.53;;;2.70;;
3189;SDS011;1606;51.946;10.558;2022-10-17T03:39:17;8.90;;;2.80;;
3189;SDS011;1606;51.946;10.558;2022-10-17T03:41:44;8.17;;;2.57;;
3189;SDS011;1606;51.946;10.558;2022-10-17T03:44:12;8.03;;;2.60;;
3189;SDS011;1606;51.946;10.558;2022-10-17T03:46:40;8.43;;;2.27;;
3189;SDS011;1606;51.946;10.558;2022-10-17T03:49:08;9.53;;;2.40;;
3189;SDS011;1606;51.946;10.558;2022-10-17T03:51:36;10.43;;;2.40;;
3189;SDS011;1606;51.946;10.558;2022-10-17T03:54:04;7.10;;;2.10;;
3189;SDS011;1606;51.946;10.558;2022-10-17T03:56:33;11.80;;;3.10;;
3189;SDS011;1606;51.946;10.558;2022-10-17T03:59:01;6.63;;;2.17;;
3189;SDS011;1606;51.946;10.558;2022-10-17T04:01:29;7.10;;;2.30;;
3189;SDS011;1606;51.946;10.558;2022-10-17T04:03:57;8.10;;;2.90;;
3189;SDS011;1606;51.946;10.558;2022-10-17T04:06:25;7.97;;;2.90;;
3189;SDS011;1606;51.946;10.558;2022-10-17T04:08:52;8.23;;;2.53;;
3189;SDS011;1606;51.946;10.558;2022-10-17T04:11:20;12.70;;;3.20;;
3189;SDS011;1606;51.946;10.558;2022-10-17T04:13:52;9.13;;;2.97;;
3189;SDS011;1606;51.946;10.558;2022-10-17T04:16:22;7.50;;;2.90;;
3189;SDS011;1606;51.946;10.558;2022-10-17T04:18:51;7.90;;;3.27;;
3189;SDS011;1606;51.946;10.558;2022-10-17T04:21:20;10.03;;;2.90;;
3189;SDS011;1606;51.946;10.558;2022-10-17T04:23:51;9.07;;;3.10;;
3189;SDS011;1606;51.946;10.558;2022-10-17T04:26:19;8.00;;;2.97;;
3189;SDS011;1606;51.946;10.558;2022-10-17T04:28:47;11.30;;;3.30;;
3189;SDS011;1606;51.946;10.558;2022-10-17T04:31:16;8.07;;;2.90;;
3189;SDS011;1606;51.946;10.558;2022-10-17T04:33:45;7.40;;;2.93;;
3189;SDS011;1606;51.946;10.558;2022-10-17T04:36:15;8.57;;;3.20;;
3189;SDS011;1606;51.946;10.558;2022-10-17T04:38:43;7.83;;;3.10;;
3189;SDS011;1606;51.946;10.558;2022-10-17T04:41:12;10.20;;;3.40;;
3189;SDS011;1606;51.946;10.558;2022-10-17T04:43:41;9.57;;;3.20;;
3189;SDS011;1606;51.946;10.558;2022-10-17T04:46:16;8.10;;;3.53;;
3189;SDS011;1606;51.946;10.558;2022-10-17T04:48:44;19.63;;;3.50;;
3189;SDS011;1606;51.946;10.558;2022-10-17T04:51:13;7.63;;;3.03;;
3189;SDS011;1606;51.946;10.558;2022-10-17T04:53:44;7.43;;;2.53;;
3189;SDS011;1606;51.946;10.558;2022-10-17T04:56:14;8.60;;;3.30;;
3189;SDS011;1606;51.946;10.558;2022-10-17T04:58:43;9.07;;;3.17;;
3189;SDS011;1606;51.946;10.558;2022-10-17T05:01:13;17.43;;;3.40;;
3189;SDS011;1606;51.946;10.558;2022-10-17T05:03:44;7.90;;;3.20;;
3189;SDS011;1606;51.946;10.558;2022-10-17T05:06:12;8.00;;;3.07;;
3189;SDS011;1606;51.946;10.558;2022-10-17T05:08:42;10.53;;;3.43;;
3189;SDS011;1606;51.946;10.558;2022-10-17T05:11:14;10.67;;;3.43;;
3189;SDS011;1606;51.946;10.558;2022-10-17T05:13:44;11.80;;;3.90;;
3189;SDS011;1606;51.946;10.558;2022-10-17T05:16:16;12.03;;;3.70;;
3189;SDS011;1606;51.946;10.558;2022-10-17T05:18:47;11.40;;;3.33;;
3189;SDS011;1606;51.946;10.558;2022-10-17T05:21:18;8.10;;;2.93;;
3189;SDS011;1606;51.946;10.558;2022-10-17T05:23:47;7.53;;;3.10;;
3189;SDS011;1606;51.946;10.558;2022-10-17T05:26:14;9.47;;;3.47;;
3189;SDS011;1606;51.946;10.558;2022-10-17T05:28:43;8.60;;;3.20;;
3189;SDS011;1606;51.946;10.558;2022-10-17T05:31:11;9.33;;;3.77;;
3189;SDS011;1606;51.946;10.558;2022-10-17T05:33:39;7.70;;;3.10;;
3189;SDS011;1606;51.946;10.558;2022-10-17T05:36:08;7.90;;;3.33;;
3189;SDS011;1606;51.946;10.558;2022-10-17T05:38:36;8.40;;;3.07;;
3189;SDS011;1606;51.946;10.558;2022-10-17T05:41:04;8.00;;;2.90;;
3189;SDS011;1606;51.946;10.558;2022-10-17T05:43:32;9.70;;;3.23;;
3189;SDS011;1606;51.946;10.558;2022-10-17T05:46:01;11.30;;;4.43;;
3189;SDS011;1606;51.946;10.558;2022-10-17T05:48:30;8.10;;;3.23;;
3189;SDS011;1606;51.946;10.558;2022-10-17T05:50:58;9.30;;;3.40;;
3189;SDS011;1606;51.946;10.558;2022-10-17T05:53:30;8.63;;;3.30;;
3189;SDS011;1606;51.946;10.558;2022-10-17T05:55:59;8.37;;;4.07;;
3189;SDS011;1606;51.946;10.558;2022-10-17T05:58:28;7.30;;;3.20;;
3189;SDS011;1606;51.946;10.558;2022-10-17T06:01:15;9.70;;;3.47;;
3189;SDS011;1606;51.946;10.558;2022-10-17T06:03:43;8.93;;;3.87;;
3189;SDS011;1606;51.946;10.558;2022-10-17T06:06:11;8.83;;;3.77;;
3189;SDS011;1606;51.946;10.558;2022-10-17T06:08:41;9.47;;;4.23;;
3189;SDS011;1606;51.946;10.558;2022-10-17T06:11:10;11.77;;;3.90;;
3189;SDS011;1606;51.946;10.558;2022-10-17T06:13:39;10.30;;;4.73;;
3189;SDS011;1606;51.946;10.558;2022-10-17T06:16:08;10.00;;;4.83;;
3189;SDS011;1606;51.946;10.558;2022-10-17T06:18:35;9.87;;;4.67;;
3189;SDS011;1606;51.946;10.558;2022-10-17T06:21:04;11.20;;;4.53;;
3189;SDS011;1606;51.946;10.558;2022-10-17T06:23:33;13.13;;;4.20;;
3189;SDS011;1606;51.946;10.558;2022-10-17T06:26:03;9.90;;;4.00;;
3189;SDS011;1606;51.946;10.558;2022-10-17T06:28:32;11.70;;;4.33;;
3189;SDS011;1606;51.946;10.558;2022-10-17T06:31:02;9.20;;;4.40;;
3189;SDS011;1606;51.946;10.558;2022-10-17T06:33:31;12.50;;;5.10;;
3189;SDS011;1606;51.946;10.558;2022-10-17T06:35:59;13.20;;;5.43;;
3189;SDS011;1606;51.946;10.558;2022-10-17T06:38:27;9.43;;;4.10;;
3189;SDS011;1606;51.946;10.558;2022-10-17T06:41:02;12.90;;;4.30;;
3189;SDS011;1606;51.946;10.558;2022-10-17T06:43:33;13.03;;;4.70;;
3189;SDS011;1606;51.946;10.558;2022-10-17T06:46:01;9.53;;;4.93;;
3189;SDS011;1606;51.946;10.558;2022-10-17T06:48:29;9.00;;;4.43;;
3189;SDS011;1606;51.946;10.558;2022-10-17T06:50:57;11.43;;;5.03;;
3189;SDS011;1606;51.946;10.558;2022-10-17T06:53:26;12.60;;;5.03;;
3189;SDS011;1606;51.946;10.558;2022-10-17T06:55:54;10.50;;;4.70;;
3189;SDS011;1606;51.946;10.558;2022-10-17T06:58:27;9.63;;;4.60;;
3189;SDS011;1606;51.946;10.558;2022-10-17T07:00:59;13.03;;;4.70;;
3189;SDS011;1606;51.946;10.558;2022-10-17T07:03:27;12.10;;;4.47;;
3189;SDS011;1606;51.946;10.558;2022-10-17T07:05:56;11.20;;;4.30;;
3189;SDS011;1606;51.946;10.558;2022-10-17T07:08:24;12.47;;;5.43;;
3189;SDS011;1606;51.946;10.558;2022-10-17T07:10:53;9.67;;;3.60;;
3189;SDS011;1606;51.946;10.558;2022-10-17T07:13:21;9.33;;;4.27;;
3189;SDS011;1606;51.946;10.558;2022-10-17T07:15:51;10.40;;;4.60;;
3189;SDS011;1606;51.946;10.558;2022-10-17T07:18:23;8.80;;;4.53;;
3189;SDS011;1606;51.946;10.558;2022-10-17T07:20:51;13.97;;;5.20;;
3189;SDS011;1606;51.946;10.558;2022-10-17T07:23:19;12.40;;;4.97;;
3189;SDS011;1606;51.946;10.558;2022-10-17T07:25:47;11.10;;;5.60;;
3189;SDS011;1606;51.946;10.558;2022-10-17T07:28:16;12.57;;;5.67;;
3189;SDS011;1606;51.946;10.558;2022-10-17T07:30:43;11.07;;;5.80;;
3189;SDS011;1606;51.946;10.558;2022-10-17T07:33:20;10.13;;;4.50;;
3189;SDS011;1606;51.946;10.558;2022-10-17T07:35:48;10.63;;;4.50;;
3189;SDS011;1606;51.946;10.558;2022-10-17T07:38:17;8.63;;;4.20;;
3189;SDS011;1606;51.946;10.558;2022-10-17T07:40:45;12.00;;;4.87;;
3189;SDS011;1606;51.946;10.558;2022-10-17T07:43:20;9.13;;;4.17;;
3189;SDS011;1606;51.946;10.558;2022-10-17T07:45:48;15.00;;;5.43;;
3189;SDS011;1606;51.946;10.558;2022-10-17T07:48:16;7.73;;;3.60;;
3189;SDS011;1606;51.946;10.558;2022-10-17T07:50:45;8.93;;;3.80;;
3189;SDS011;1606;51.946;10.558;2022-10-17T07:53:13;9.20;;;3.57;;
3189;SDS011;1606;51.946;10.558;2022-10-17T07:55:43;8.80;;;3.83;;
3189;SDS011;1606;51.946;10.558;2022-10-17T07:58:11;8.00;;;3.37;;
3189;SDS011;1606;51.946;10.558;2022-10-17T08:00:40;9.00;;;3.30;;
3189;SDS011;1606;51.946;10.558;2022-10-17T08:03:08;9.57;;;3.00;;
3189;SDS011;1606;51.946;10.558;2022-10-17T08:05:37;8.10;;;3.40;;
3189;SDS011;1606;51.946;10.558;2022-10-17T08:08:06;7.40;;;3.33;;
3189;SDS011;1606;51.946;10.558;2022-10-17T08:10:34;7.87;;;3.43;;
3189;SDS011;1606;51.946;10.558;2022-10-17T08:13:02;11.53;;;3.37;;
3189;SDS011;1606;51.946;10.558;2022-10-17T08:15:30;8.80;;;3.80;;
3189;SDS011;1606;51.946;10.558;2022-10-17T08:17:58;11.63;;;4.15;;
3189;SDS011;1606;51.946;10.558;2022-10-17T08:20:27;6.70;;;2.23;;
3189;SDS011;1606;51.946;10.558;2022-10-17T08:22:55;7.00;;;3.00;;
3189;SDS011;1606;51.946;10.558;2022-10-17T08:25:24;7.50;;;2.97;;
3189;SDS011;1606;51.946;10.558;2022-10-17T08:27:52;8.87;;;2.83;;
3189;SDS011;1606;51.946;10.558;2022-10-17T08:30:20;7.50;;;2.87;;
3189;SDS011;1606;51.946;10.558;2022-10-17T08:32:48;7.27;;;2.73;;
3189;SDS011;1606;51.946;10.558;2022-10-17T08:35:16;8.47;;;2.40;;
3189;SDS011;1606;51.946;10.558;2022-10-17T08:37:44;7.43;;;3.43;;
3189;SDS011;1606;51.946;10.558;2022-10-17T08:40:13;5.97;;;2.63;;
3189;SDS011;1606;51.946;10.558;2022-10-17T08:42:51;7.07;;;2.60;;
3189;SDS011;1606;51.946;10.558;2022-10-17T08:45:44;10.40;;;3.00;;
3189;SDS011;1606;51.946;10.558;2022-10-17T08:48:19;7.30;;;2.70;;
3189;SDS011;1606;51.946;10.558;2022-10-17T08:50:50;6.53;;;2.50;;
3189;SDS011;1606;51.946;10.558;2022-10-17T08:53:21;9.43;;;3.10;;
3189;SDS011;1606;51.946;10.558;2022-10-17T08:55:52;7.83;;;2.70;;
3189;SDS011;1606;51.946;10.558;2022-10-17T08:58:23;6.80;;;2.57;;
3189;SDS011;1606;51.946;10.558;2022-10-17T09:00:57;6.80;;;2.67;;
3189;SDS011;1606;51.946;10.558;2022-10-17T09:03:42;8.00;;;3.60;;
3189;SDS011;1606;51.946;10.558;2022-10-17T09:06:17;8.23;;;2.70;;
3189;SDS011;1606;51.946;10.558;2022-10-17T09:08:57;7.97;;;3.10;;
3189;SDS011;1606;51.946;10.558;2022-10-17T09:11:38;7.60;;;2.90;;
3189;SDS011;1606;51.946;10.558;2022-10-17T09:14:20;6.57;;;2.90;;
3189;SDS011;1606;51.946;10.558;2022-10-17T09:17:04;7.50;;;2.70;;
3189;SDS011;1606;51.946;10.558;2022-10-17T09:19:42;8.40;;;3.20;;
3189;SDS011;1606;51.946;10.558;2022-10-17T09:22:16;10.17;;;3.20;;
3189;SDS011;1606;51.946;10.558;2022-10-17T09:24:48;7.90;;;2.97;;
3189;SDS011;1606;51.946;10.558;2022-10-17T09:27:22;7.00;;;2.87;;
3189;SDS011;1606;51.946;10.558;2022-10-17T09:29:53;8.77;;;3.23;;
3189;SDS011;1606;51.946;10.558;2022-10-17T09:32:29;7.13;;;2.50;;
3189;SDS011;1606;51.946;10.558;2022-10-17T09:34:57;8.97;;;3.03;;
3189;SDS011;1606;51.946;10.558;2022-10-17T09:37:28;10.60;;;2.90;;
3189;SDS011;1606;51.946;10.558;2022-10-17T09:39:58;7.47;;;2.60;;
3189;SDS011;1606;51.946;10.558;2022-10-17T09:42:26;6.23;;;2.40;;
3189;SDS011;1606;51.946;10.558;2022-10-17T09:45:12;9.77;;;3.00;;
3189;SDS011;1606;51.946;10.558;2022-10-17T09:47:46;7.27;;;2.90;;
3189;SDS011;1606;51.946;10.558;2022-10-17T09:50:19;6.90;;;3.03;;
3189;SDS011;1606;51.946;10.558;2022-10-17T09:52:50;7.30;;;3.10;;
3189;SDS011;1606;51.946;10.558;2022-10-17T09:55:21;7.70;;;2.83;;
3189;SDS011;1606;51.946;10.558;2022-10-17T09:57:56;8.20;;;2.70;;
3189;SDS011;1606;51.946;10.558;2022-10-17T10:00:27;11.00;;;3.20;;
3189;SDS011;1606;51.946;10.558;2022-10-17T10:03:13;9.20;;;2.30;;
3189;SDS011;1606;51.946;10.558;2022-10-17T10:05:57;11.13;;;3.30;;
3189;SDS011;1606;51.946;10.558;2022-10-17T10:08:28;12.10;;;2.80;;
3189;SDS011;1606;51.946;10.558;2022-10-17T10:11:00;6.80;;;2.37;;
3189;SDS011;1606;51.946;10.558;2022-10-17T10:13:30;8.00;;;2.60;;
3189;SDS011;1606;51.946;10.558;2022-10-17T10:16:15;7.37;;;2.30;;
3189;SDS011;1606;51.946;10.558;2022-10-17T10:18:46;10.70;;;3.10;;
3189;SDS011;1606;51.946;10.558;2022-10-17T10:21:17;8.93;;;2.70;;
3189;SDS011;1606;51.946;10.558;2022-10-17T10:24:01;7.63;;;2.13;;
3189;SDS011;1606;51.946;10.558;2022-10-17T10:26:33;9.20;;;2.93;;
3189;SDS011;1606;51.946;10.558;2022-10-17T10:29:05;8.83;;;2.70;;
3189;SDS011;1606;51.946;10.558;2022-10-17T10:31:45;7.40;;;3.40;;
3189;SDS011;1606;51.946;10.558;2022-10-17T10:34:15;9.17;;;2.40;;
3189;SDS011;1606;51.946;10.558;2022-10-17T10:36:48;7.13;;;2.90;;
3189;SDS011;1606;51.946;10.558;2022-10-17T10:42:06;10.33;;;3.07;;
3189;SDS011;1606;51.946;10.558;2022-10-17T10:44:43;12.30;;;3.10;;
3189;SDS011;1606;51.946;10.558;2022-10-17T10:47:21;9.13;;;2.80;;
3189;SDS011;1606;51.946;10.558;2022-10-17T10:49:52;7.00;;;2.77;;
3189;SDS011;1606;51.946;10.558;2022-10-17T10:52:37;9.40;;;2.77;;
3189;SDS011;1606;51.946;10.558;2022-10-17T10:55:15;9.33;;;2.73;;
3189;SDS011;1606;51.946;10.558;2022-10-17T10:57:48;8.50;;;2.80;;
3189;SDS011;1606;51.946;10.558;2022-10-17T11:00:20;7.30;;;2.73;;
3189;SDS011;1606;51.946;10.558;2022-10-17T11:02:56;7.97;;;2.80;;
3189;SDS011;1606;51.946;10.558;2022-10-17T11:05:35;5.20;;;1.77;;
3189;SDS011;1606;51.946;10.558;2022-10-17T11:08:11;8.33;;;2.50;;
3189;SDS011;1606;51.946;10.558;2022-10-17T11:10:50;8.00;;;2.27;;
3189;SDS011;1606;51.946;10.558;2022-10-17T11:13:28;7.73;;;2.40;;
3189;SDS011;1606;51.946;10.558;2022-10-17T11:16:01;12.60;;;2.17;;
3189;SDS011;1606;51.946;10.558;2022-10-17T11:18:40;9.73;;;2.77;;
3189;SDS011;1606;51.946;10.558;2022-10-17T11:21:12;6.07;;;2.60;;
3189;SDS011;1606;51.946;10.558;2022-10-17T11:23:43;6.23;;;2.57;;
3189;SDS011;1606;51.946;10.558;2022-10-17T11:26:15;6.63;;;2.40;;
3189;SDS011;1606;51.946;10.558;2022-10-17T11:28:51;6.27;;;2.47;;
3189;SDS011;1606;51.946;10.558;2022-10-17T11:31:20;8.27;;;2.90;;
3189;SDS011;1606;51.946;10.558;2022-10-17T11:33:53;6.37;;;2.33;;
3189;SDS011;1606;51.946;10.558;2022-10-17T11:36:24;7.70;;;2.40;;
3189;SDS011;1606;51.946;10.558;2022-10-17T11:38:56;8.63;;;2.40;;
3189;SDS011;1606;51.946;10.558;2022-10-17T11:41:28;6.80;;;2.17;;
3189;SDS011;1606;51.946;10.558;2022-10-17T11:44:02;7.87;;;2.30;;
3189;SDS011;1606;51.946;10.558;2022-10-17T11:46:37;7.57;;;2.77;;
3189;SDS011;1606;51.946;10.558;2022-10-17T11:49:11;8.43;;;2.27;;
3189;SDS011;1606;51.946;10.558;2022-10-17T11:51:47;7.60;;;2.53;;
3189;SDS011;1606;51.946;10.558;2022-10-17T11:54:29;6.30;;;2.30;;
3189;SDS011;1606;51.946;10.558;2022-10-17T11:57:05;6.43;;;1.93;;
3189;SDS011;1606;51.946;10.558;2022-10-17T12:00:02;7.33;;;2.50;;
3189;SDS011;1606;51.946;10.558;2022-10-17T12:02:46;8.70;;;2.20;;
3189;SDS011;1606;51.946;10.558;2022-10-17T12:05:23;10.93;;;2.60;;
3189;SDS011;1606;51.946;10.558;2022-10-17T12:08:00;9.53;;;2.37;;
3189;SDS011;1606;51.946;10.558;2022-10-17T12:10:38;7.80;;;2.27;;
3189;SDS011;1606;51.946;10.558;2022-10-17T12:24:58;8.00;;;2.00;;
3189;SDS011;1606;51.946;10.558;2022-10-17T12:27:30;8.20;;;2.33;;
3189;SDS011;1606;51.946;10.558;2022-10-17T12:30:17;7.13;;;2.50;;
3189;SDS011;1606;51.946;10.558;2022-10-17T12:33:01;9.83;;;2.40;;
3189;SDS011;1606;51.946;10.558;2022-10-17T12:35:33;7.40;;;2.57;;
3189;SDS011;1606;51.946;10.558;2022-10-17T12:38:14;9.23;;;2.40;;
3189;SDS011;1606;51.946;10.558;2022-10-17T12:40:50;6.97;;;2.20;;
3189;SDS011;1606;51.946;10.558;2022-10-17T12:43:35;11.80;;;2.80;;
3189;SDS011;1606;51.946;10.558;2022-10-17T12:46:44;6.63;;;2.23;;
3189;SDS011;1606;51.946;10.558;2022-10-17T12:49:19;6.93;;;2.10;;
3189;SDS011;1606;51.946;10.558;2022-10-17T12:54:57;6.83;;;2.10;;
3189;SDS011;1606;51.946;10.558;2022-10-17T12:57:46;12.83;;;2.23;;
3189;SDS011;1606;51.946;10.558;2022-10-17T13:00:21;9.50;;;2.30;;
3189;SDS011;1606;51.946;10.558;2022-10-17T13:02:55;7.63;;;2.40;;
3189;SDS011;1606;51.946;10.558;2022-10-17T13:05:32;9.30;;;2.87;;
3189;SDS011;1606;51.946;10.558;2022-10-17T13:08:02;12.60;;;2.60;;
3189;SDS011;1606;51.946;10.558;2022-10-17T13:10:35;7.30;;;2.03;;
3189;SDS011;1606;51.946;10.558;2022-10-17T13:13:10;7.73;;;2.30;;
3189;SDS011;1606;51.946;10.558;2022-10-17T13:15:44;12.87;;;2.50;;
3189;SDS011;1606;51.946;10.558;2022-10-17T13:18:16;6.10;;;1.93;;
3189;SDS011;1606;51.946;10.558;2022-10-17T13:20:56;15.30;;;2.93;;
3189;SDS011;1606;51.946;10.558;2022-10-17T13:23:28;7.77;;;2.47;;
3189;SDS011;1606;51.946;10.558;2022-10-17T13:26:07;5.63;;;1.90;;
3189;SDS011;1606;51.946;10.558;2022-10-17T13:28:40;10.30;;;2.30;;
3189;SDS011;1606;51.946;10.558;2022-10-17T13:31:22;9.30;;;2.37;;
3189;SDS011;1606;51.946;10.558;2022-10-17T13:33:56;7.33;;;2.50;;
3189;SDS011;1606;51.946;10.558;2022-10-17T13:36:25;8.23;;;2.10;;
3189;SDS011;1606;51.946;10.558;2022-10-17T13:38:54;8.00;;;2.13;;
3189;SDS011;1606;51.946;10.558;2022-10-17T13:41:26;9.67;;;2.37;;
3189;SDS011;1606;51.946;10.558;2022-10-17T13:44:02;6.60;;;2.00;;
3189;SDS011;1606;51.946;10.558;2022-10-17T13:46:35;8.80;;;2.37;;
3189;SDS011;1606;51.946;10.558;2022-10-17T13:49:10;8.53;;;2.47;;
3189;SDS011;1606;51.946;10.558;2022-10-17T13:51:43;5.77;;;2.23;;
3189;SDS011;1606;51.946;10.558;2022-10-17T13:54:16;6.00;;;2.17;;
3189;SDS011;1606;51.946;10.558;2022-10-17T13:56:47;8.33;;;2.63;;
3189;SDS011;1606;51.946;10.558;2022-10-17T13:59:24;6.40;;;2.10;;
3189;SDS011;1606;51.946;10.558;2022-10-17T14:01:56;7.63;;;2.40;;
3189;SDS011;1606;51.946;10.558;2022-10-17T14:04:26;9.33;;;2.63;;
3189;SDS011;1606;51.946;10.558;2022-10-17T14:07:15;8.40;;;1.93;;
3189;SDS011;1606;51.946;10.558;2022-10-17T14:09:49;7.70;;;2.00;;
3189;SDS011;1606;51.946;10.558;2022-10-17T14:12:19;8.35;;;2.20;;
3189;SDS011;1606;51.946;10.558;2022-10-17T14:14:49;9.87;;;3.33;;
3189;SDS011;1606;51.946;10.558;2022-10-17T14:17:36;5.97;;;2.00;;
3189;SDS011;1606;51.946;10.558;2022-10-17T14:20:05;6.33;;;2.00;;
3189;SDS011;1606;51.946;10.558;2022-10-17T14:22:55;10.73;;;2.00;;
3189;SDS011;1606;51.946;10.558;2022-10-17T14:25:43;7.13;;;2.17;;
3189;SDS011;1606;51.946;10.558;2022-10-17T14:28:13;6.47;;;2.17;;
3189;SDS011;1606;51.946;10.558;2022-10-17T14:30:46;7.57;;;2.67;;
3189;SDS011;1606;51.946;10.558;2022-10-17T14:33:23;7.53;;;2.30;;
3189;SDS011;1606;51.946;10.558;2022-10-17T14:35:54;8.07;;;1.83;;
3189;SDS011;1606;51.946;10.558;2022-10-17T14:38:23;8.17;;;1.90;;
3189;SDS011;1606;51.946;10.558;2022-10-17T14:40:52;7.47;;;1.80;;
3189;SDS011;1606;51.946;10.558;2022-10-17T14:43:50;9.83;;;2.10;;
3189;SDS011;1606;51.946;10.558;2022-10-17T14:46:20;6.63;;;2.00;;
3189;SDS011;1606;51.946;10.558;2022-10-17T14:48:50;6.70;;;1.70;;
3189;SDS011;1606;51.946;10.558;2022-10-17T14:51:21;5.67;;;2.13;;
3189;SDS011;1606;51.946;10.558;2022-10-17T14:53:59;7.87;;;2.00;;
3189;SDS011;1606;51.946;10.558;2022-10-17T14:56:35;10.40;;;3.20;;
3189;SDS011;1606;51.946;10.558;2022-10-17T14:59:07;7.70;;;2.10;;
3189;SDS011;1606;51.946;10.558;2022-10-17T15:01:46;9.60;;;2.87;;
3189;SDS011;1606;51.946;10.558;2022-10-17T15:04:14;7.90;;;2.60;;
3189;SDS011;1606;51.946;10.558;2022-10-17T15:06:43;7.03;;;2.20;;
3189;SDS011;1606;51.946;10.558;2022-10-17T15:09:11;7.43;;;2.43;;
3189;SDS011;1606;51.946;10.558;2022-10-17T15:11:39;7.77;;;2.10;;
3189;SDS011;1606;51.946;10.558;2022-10-17T15:14:08;9.10;;;2.10;;
3189;SDS011;1606;51.946;10.558;2022-10-17T15:16:36;8.30;;;2.27;;
3189;SDS011;1606;51.946;10.558;2022-10-17T15:19:04;8.80;;;2.53;;
3189;SDS011;1606;51.946;10.558;2022-10-17T15:21:32;7.23;;;2.20;;
3189;SDS011;1606;51.946;10.558;2022-10-17T15:24:08;10.80;;;2.80;;
3189;SDS011;1606;51.946;10.558;2022-10-17T15:26:36;7.23;;;2.30;;
3189;SDS011;1606;51.946;10.558;2022-10-17T15:29:05;11.33;;;2.27;;
3189;SDS011;1606;51.946;10.558;2022-10-17T15:31:34;10.70;;;2.57;;
3189;SDS011;1606;51.946;10.558;2022-10-17T15:34:04;8.70;;;2.40;;
3189;SDS011;1606;51.946;10.558;2022-10-17T15:36:32;10.73;;;3.37;;
3189;SDS011;1606;51.946;10.558;2022-10-17T15:39:06;9.63;;;2.70;;
3189;SDS011;1606;51.946;10.558;2022-10-17T15:41:36;8.23;;;2.43;;
3189;SDS011;1606;51.946;10.558;2022-10-17T15:44:03;8.40;;;2.57;;
3189;SDS011;1606;51.946;10.558;2022-10-17T15:46:32;7.30;;;2.50;;